Time;durP1;ratioP1;P1;durP2;ratioP2;P2;SDS_P1;SDS_P2;PMS_P1;PMS_P2;Temp;Humidity;BMP_temperature;BMP_pressure;BME280_temperature;BME280_humidity;BME280_pressure;Samples;Min_cycle;Max_cycle;Signal;HPM_P1;HPM_P2
2022/05/04 00:00:21;;;;;;;10.67;10.07;;;;;;;5.44;91.04;92866.69;5070201;28;20185;-82
2022/05/04 00:02:46;;;;;;;10.80;10.13;;;;;;;5.25;92.23;92862.03;5071888;28;20255;-82
2022/05/04 00:05:12;;;;;;;10.97;10.33;;;;;;;5.18;92.23;92853.66;5071898;28;20181;-81
2022/05/04 00:07:37;;;;;;;9.97;9.33;;;;;;;5.19;92.85;92857.81;5062562;28;20234;-82
2022/05/04 00:10:05;;;;;;;9.77;9.37;;;;;;;5.21;91.66;92856.56;5072366;28;20201;-81
2022/05/04 00:12:31;;;;;;;10.00;9.50;;;;;;;5.14;91.64;92848.19;5058529;28;20259;-84
2022/05/04 00:14:56;;;;;;;11.87;10.83;;;;;;;5.28;90.74;92846.81;5052419;28;20182;-82
2022/05/04 00:17:22;;;;;;;10.67;9.97;;;;;;;5.01;91.16;92834.81;5054151;28;20228;-82
2022/05/04 00:19:47;;;;;;;10.40;9.83;;;;;;;5.07;91.46;92844.19;5054251;28;20185;-82
2022/05/04 00:22:20;;;;;;;10.03;9.60;;;;;;;5.14;91.34;92852.59;5064006;28;20230;-82
2022/05/04 00:24:46;;;;;;;10.23;9.43;;;;;;;5.23;90.68;92867.44;5086074;28;20182;-82
2022/05/04 00:27:12;;;;;;;8.57;8.10;;;;;;;4.96;90.60;92838.88;5064535;28;20232;-82
2022/05/04 00:29:37;;;;;;;10.20;9.70;;;;;;;5.09;90.59;92855.09;5068993;28;20254;-82
2022/05/04 00:32:03;;;;;;;9.63;9.23;;;;;;;5.03;90.88;92856.06;5068489;28;20234;-82
2022/05/04 00:34:28;;;;;;;9.63;9.23;;;;;;;4.91;91.70;92856.94;5089423;28;20205;-82
2022/05/04 00:36:54;;;;;;;8.97;8.57;;;;;;;4.84;92.20;92840.78;5069248;28;20924;-83
2022/05/04 00:39:20;;;;;;;9.53;8.97;;;;;;;4.82;92.32;92847.22;5071949;28;20182;-81
2022/05/04 00:41:45;;;;;;;8.73;8.43;;;;;;;4.80;92.34;92849.25;5070019;28;20229;-83
2022/05/04 00:44:11;;;;;;;10.07;9.53;;;;;;;4.93;92.06;92854.88;5071736;28;20185;-84
2022/05/04 00:46:36;;;;;;;9.47;8.97;;;;;;;4.98;91.99;92861.91;5070397;28;20225;-84
2022/05/04 00:49:02;;;;;;;10.20;9.43;;;;;;;4.98;90.07;92862.72;5060339;28;20190;-82
2022/05/04 00:51:28;;;;;;;9.17;8.87;;;;;;;4.93;90.89;92870.41;5071321;28;20252;-80
2022/05/04 00:53:54;;;;;;;9.87;9.47;;;;;;;4.85;90.14;92852.72;5068794;28;20190;-79
2022/05/04 00:56:19;;;;;;;8.83;8.50;;;;;;;4.74;90.59;92866.53;5070307;28;20236;-84
2022/05/04 00:58:55;;;;;;;9.77;9.30;;;;;;;4.87;90.79;92883.53;5066570;28;20232;-81
2022/05/04 01:01:28;;;;;;;8.40;8.10;;;;;;;4.79;91.50;92881.34;5070757;28;20229;-84
2022/05/04 01:03:55;;;;;;;8.60;8.30;;;;;;;4.72;90.86;92867.75;5070070;28;20185;-80
2022/05/04 01:06:21;;;;;;;9.60;9.20;;;;;;;4.81;91.13;92894.78;5068615;28;20232;-79
2022/05/04 01:08:48;;;;;;;8.33;8.03;;;;;;;4.76;91.68;92890.31;5067298;28;20244;-81
2022/05/04 01:11:15;;;;;;;9.87;9.47;;;;;;;4.62;91.32;92875.38;5062610;28;20221;-79
2022/05/04 01:13:40;;;;;;;10.00;9.60;;;;;;;4.69;92.16;92894.88;5052155;28;20233;-80
2022/05/04 01:16:06;;;;;;;10.03;9.70;;;;;;;4.64;92.13;92881.88;5056502;28;20292;-80
2022/05/04 01:18:31;;;;;;;8.90;8.40;;;;;;;4.49;92.92;92879.06;5064629;28;20207;-79
2022/05/04 01:20:57;;;;;;;9.93;9.53;;;;;;;4.54;93.18;92880.94;5069281;28;20225;-78
2022/05/04 01:23:22;;;;;;;8.77;8.47;;;;;;;4.50;93.44;92888.38;5067535;28;20190;-80
2022/05/04 01:25:53;;;;;;;9.73;9.10;;;;;;;4.51;93.69;92886.59;5071300;28;20196;-80
2022/05/04 01:28:19;;;;;;;9.30;8.93;;;;;;;4.56;91.56;92884.84;5067780;28;20217;-80
2022/05/04 01:30:44;;;;;;;9.07;8.77;;;;;;;4.27;92.79;92847.19;5065440;28;20205;-81
2022/05/04 01:33:09;;;;;;;9.30;8.80;;;;;;;4.44;92.63;92866.06;5067179;28;20225;-81
2022/05/04 01:35:35;;;;;;;9.30;8.90;;;;;;;4.47;92.22;92862.22;5067991;28;20223;-79
2022/05/04 01:38:00;;;;;;;10.67;10.17;;;;;;;4.45;92.31;92882.34;5050618;28;20182;-78
2022/05/04 01:40:26;;;;;;;8.73;8.43;;;;;;;4.29;92.91;92871.00;5050000;28;20186;-80
2022/05/04 01:42:51;;;;;;;10.10;9.70;;;;;;;4.35;92.91;92877.81;5049297;28;20291;-80
2022/05/04 01:45:17;;;;;;;9.27;8.83;;;;;;;4.42;93.15;92886.19;5043743;28;20246;-79
2022/05/04 01:47:49;;;;;;;9.37;8.90;;;;;;;4.49;92.48;92889.41;5050822;28;20719;-80
2022/05/04 01:50:16;;;;;;;10.07;9.33;;;;;;;4.42;92.22;92880.25;5055435;28;20213;-81
2022/05/04 01:52:41;;;;;;;9.77;9.37;;;;;;;4.40;92.35;92885.66;5060400;28;20221;-80
2022/05/04 01:55:08;;;;;;;9.47;8.77;;;;;;;4.37;91.89;92886.09;5070519;28;20185;-81
2022/05/04 01:57:33;;;;;;;8.87;8.27;;;;;;;4.23;92.72;92855.63;5062795;28;20217;-78
2022/05/04 01:59:59;;;;;;;9.37;8.90;;;;;;;4.07;92.51;92828.78;5067370;28;20200;-80
2022/05/04 02:02:26;;;;;;;9.40;9.00;;;;;;;4.36;93.06;92871.59;5070022;28;20267;-80
2022/05/04 02:04:52;;;;;;;9.30;9.00;;;;;;;4.33;93.81;92871.28;5064584;28;20193;-80
2022/05/04 02:07:17;;;;;;;8.80;8.47;;;;;;;4.35;93.00;92867.47;5065504;28;20301;-81
2022/05/04 02:09:43;;;;;;;8.20;7.90;;;;;;;4.10;93.40;92851.56;5067220;28;20189;-80
2022/05/04 02:12:09;;;;;;;9.17;8.77;;;;;;;4.04;93.96;92841.34;5065621;28;20297;-81
2022/05/04 02:14:34;;;;;;;9.17;8.73;;;;;;;4.19;93.95;92863.06;5072387;28;20204;-81
2022/05/04 02:17:00;;;;;;;9.47;9.03;;;;;;;4.32;92.74;92867.94;5084375;28;20233;-80
2022/05/04 02:19:26;;;;;;;9.10;8.70;;;;;;;4.15;93.21;92879.25;5073529;28;20253;-81
2022/05/04 02:21:52;;;;;;;8.90;8.60;;;;;;;4.22;92.79;92877.31;5067078;28;20222;-81
2022/05/04 02:24:18;;;;;;;9.50;8.97;;;;;;;4.27;93.26;92879.97;5067565;28;20229;-81
2022/05/04 02:26:43;;;;;;;8.60;8.30;;;;;;;4.28;92.17;92877.16;5068974;28;20213;-80
2022/05/04 02:29:09;;;;;;;9.83;9.43;;;;;;;4.26;92.89;92863.72;5068772;28;20192;-81
2022/05/04 02:31:34;;;;;;;8.57;8.20;;;;;;;4.12;93.18;92864.22;5061997;28;20229;-78
2022/05/04 02:33:59;;;;;;;8.30;7.93;;;;;;;3.96;93.73;92857.22;5069396;28;20201;-79
2022/05/04 02:39:09;;;;;;;8.87;8.47;;;;;;;4.13;93.00;92869.16;5049108;28;20220;-80
2022/05/04 02:41:34;;;;;;;9.43;9.03;;;;;;;4.19;93.44;92875.97;5049630;28;20226;-80
2022/05/04 02:44:02;;;;;;;9.67;9.27;;;;;;;4.25;92.87;92872.47;5062556;28;20185;-80
2022/05/04 02:46:30;;;;;;;10.27;9.77;;;;;;;4.21;93.00;92873.16;5069376;28;20301;-80
2022/05/04 02:48:56;;;;;;;9.67;9.27;;;;;;;4.29;93.31;92872.78;5067832;28;20194;-80
2022/05/04 02:51:21;;;;;;;9.73;9.33;;;;;;;4.07;93.16;92846.84;5052163;28;20222;-80
2022/05/04 02:53:47;;;;;;;9.73;9.27;;;;;;;4.16;93.05;92863.53;5052909;28;20194;-81
2022/05/04 02:56:15;;;;;;;9.43;9.03;;;;;;;4.35;93.05;92877.81;5052038;28;20249;-81
2022/05/04 02:58:41;;;;;;;9.60;9.20;;;;;;;4.14;92.75;92859.63;5052853;28;20190;-81
2022/05/04 03:04:02;;;;;;;8.60;8.20;;;;;;;4.13;93.32;92882.09;5063994;28;20215;-81
2022/05/04 03:06:28;;;;;;;9.93;9.30;;;;;;;4.08;93.40;92871.66;5061499;28;20246;-81
2022/05/04 03:08:53;;;;;;;8.30;8.00;;;;;;;3.99;92.86;92878.22;5073919;28;20217;-81
2022/05/04 03:14:03;;;;;;;9.87;9.27;;;;;;;4.27;92.30;92916.16;5068598;28;20197;-81
2022/05/04 03:16:28;;;;;;;9.47;8.87;;;;;;;4.27;91.88;92919.53;5072328;28;20228;-81
2022/05/04 03:18:54;;;;;;;9.00;8.40;;;;;;;4.23;92.15;92936.53;5071674;28;20216;-81
2022/05/04 03:21:19;;;;;;;10.20;9.60;;;;;;;4.30;91.97;92937.16;5074375;28;20250;-80
2022/05/04 03:23:45;;;;;;;9.70;8.90;;;;;;;4.33;92.09;92931.53;5077845;28;20192;-80
2022/05/04 03:26:11;;;;;;;10.10;9.67;;;;;;;4.44;90.85;92933.25;5066219;28;20251;-80
2022/05/04 03:28:36;;;;;;;9.07;8.67;;;;;;;4.38;91.13;92916.09;5069165;28;20196;-80
2022/05/04 03:31:01;;;;;;;9.87;9.47;;;;;;;4.35;91.28;92923.53;5066375;28;20232;-81
2022/05/04 03:33:28;;;;;;;9.53;9.13;;;;;;;4.31;92.51;92912.88;5071603;28;20218;-80
2022/05/04 03:35:54;;;;;;;9.70;9.30;;;;;;;4.41;93.10;92915.63;5068651;28;20186;-78
2022/05/04 03:38:19;;;;;;;9.07;8.77;;;;;;;4.63;92.05;92913.94;5068261;28;20886;-80
2022/05/04 03:40:45;;;;;;;9.37;8.97;;;;;;;4.65;90.39;92893.78;5064603;28;20193;-80
2022/05/04 03:43:11;;;;;;;9.10;8.70;;;;;;;5.06;89.26;92920.25;5084409;28;20276;-81
2022/05/04 03:45:36;;;;;;;9.77;9.37;;;;;;;5.10;89.13;92900.66;5072903;28;20193;-80
2022/05/04 03:48:02;;;;;;;9.77;9.37;;;;;;;5.29;88.10;92894.19;5061316;28;20196;-80
2022/05/04 03:50:27;;;;;;;9.73;9.23;;;;;;;5.71;87.06;92919.31;5071799;28;20224;-80
2022/05/04 03:52:52;;;;;;;10.47;10.03;;;;;;;5.79;86.63;92905.16;5060357;28;20535;-79
2022/05/04 03:55:18;;;;;;;8.27;7.97;;;;;;;6.08;85.91;92919.50;5063599;28;20264;-80
2022/05/04 03:57:43;;;;;;;9.07;8.77;;;;;;;6.38;85.59;92928.38;5070918;28;20931;-81
2022/05/04 04:00:09;;;;;;;8.50;8.20;;;;;;;6.46;84.57;92908.97;5071015;28;20187;-81
2022/05/04 04:02:36;;;;;;;10.30;9.90;;;;;;;6.50;85.10;92913.47;5076199;28;20229;-81
2022/05/04 04:05:02;;;;;;;10.27;9.27;;;;;;;6.92;84.27;92908.34;5071736;28;20213;-80
2022/05/04 04:07:27;;;;;;;9.23;8.83;;;;;;;7.02;84.67;92931.00;5067221;28;20286;-80
2022/05/04 04:09:53;;;;;;;8.03;7.77;;;;;;;7.01;84.71;92932.00;5072407;28;20205;-82
2022/05/04 04:12:18;;;;;;;9.63;9.23;;;;;;;7.25;81.72;92946.22;5067901;28;20225;-79
2022/05/04 04:14:43;;;;;;;9.73;9.33;;;;;;;7.15;79.66;92941.72;5071883;28;20237;-79
2022/05/04 04:17:09;;;;;;;10.23;9.67;;;;;;;7.21;79.31;92971.88;5071576;28;20319;-79
2022/05/04 04:19:34;;;;;;;10.43;9.73;;;;;;;7.09;80.00;92963.50;5071081;28;20201;-80
2022/05/04 04:22:00;;;;;;;10.57;9.97;;;;;;;6.88;81.76;92953.19;5057679;28;20230;-80
2022/05/04 04:24:25;;;;;;;10.80;10.20;;;;;;;7.13;81.55;92980.13;5044660;28;20194;-80
2022/05/04 04:26:51;;;;;;;11.23;10.60;;;;;;;7.17;81.38;92968.22;5047225;28;20305;-81
2022/05/04 04:29:17;;;;;;;12.37;11.57;;;;;;;7.38;80.93;92962.13;5057456;28;20201;-81
2022/05/04 04:31:42;;;;;;;10.30;9.60;;;;;;;7.54;80.18;92955.22;5056835;28;20234;-79
2022/05/04 04:34:08;;;;;;;10.83;10.13;;;;;;;7.72;79.27;92939.97;5057509;28;20204;-80
2022/05/04 04:36:34;;;;;;;11.00;10.23;;;;;;;7.95;79.03;92947.38;5055509;28;20639;-81
2022/05/04 04:39:00;;;;;;;10.70;10.10;;;;;;;8.22;76.19;92951.66;5052164;28;20245;-79
2022/05/04 04:41:26;;;;;;;10.87;10.17;;;;;;;8.27;75.84;92954.28;5058179;28;20292;-80
2022/05/04 04:43:52;;;;;;;10.13;9.53;;;;;;;8.28;76.16;92945.44;5052005;28;20198;-80
2022/05/04 04:46:17;;;;;;;9.53;8.93;;;;;;;8.27;76.63;92949.06;5049804;28;20218;-81
2022/05/04 04:48:43;;;;;;;9.77;9.17;;;;;;;8.54;76.26;92934.06;5054291;28;20197;-81
2022/05/04 04:51:08;;;;;;;12.90;11.80;;;;;;;8.59;76.50;92953.03;5054563;28;20217;-81
2022/05/04 04:53:33;;;;;;;11.00;10.20;;;;;;;8.70;76.52;92943.47;5054387;28;20190;-80
2022/05/04 04:55:59;;;;;;;11.93;11.03;;;;;;;8.56;76.95;92968.41;5041722;28;20225;-81
2022/05/04 04:58:25;;;;;;;12.63;11.73;;;;;;;8.81;76.81;92971.06;5069524;28;20186;-81
2022/05/04 05:00:51;;;;;;;12.17;11.40;;;;;;;8.76;76.91;92969.25;5068314;28;20248;-80
2022/05/04 05:03:17;;;;;;;13.17;12.20;;;;;;;8.68;77.04;92956.72;5073602;28;20189;-81
2022/05/04 05:05:43;;;;;;;13.37;12.20;;;;;;;9.10;76.07;92979.94;5063368;28;20194;-80
2022/05/04 05:08:10;;;;;;;13.43;12.20;;;;;;;8.93;76.20;92988.00;5069116;28;20266;-82
2022/05/04 05:10:36;;;;;;;13.17;12.17;;;;;;;8.81;77.28;92966.63;5070367;28;20217;-79
2022/05/04 05:13:03;;;;;;;13.87;12.67;;;;;;;9.02;76.47;92983.06;5051523;28;20213;-87
2022/05/04 05:18:12;;;;;;;14.37;13.20;;;;;;;9.03;76.92;92984.59;5050449;28;20209;-83
2022/05/04 05:20:38;;;;;;;13.47;12.47;;;;;;;9.55;73.80;92969.50;5052169;28;20233;-80
2022/05/04 05:23:03;;;;;;;14.83;13.73;;;;;;;9.49;73.37;92967.94;5051867;28;20217;-84
2022/05/04 05:25:30;;;;;;;13.30;12.17;;;;;;;9.69;72.21;92980.94;5049745;28;20196;-92
2022/05/04 05:27:56;;;;;;;14.03;12.93;;;;;;;9.52;71.60;92949.19;5063930;28;20268;-79
2022/05/04 05:30:22;;;;;;;14.73;13.43;;;;;;;9.52;72.03;92943.97;5068100;28;20211;-91
2022/05/04 05:32:47;;;;;;;13.83;12.67;;;;;;;9.82;72.43;92985.63;5069415;28;20237;-82
2022/05/04 05:35:13;;;;;;;15.50;14.30;;;;;;;9.86;72.63;92976.22;5066497;28;20261;-85
2022/05/04 05:37:38;;;;;;;14.97;13.40;;;;;;;9.62;74.21;92977.81;5068318;28;20281;-82
2022/05/04 05:40:05;;;;;;;14.57;13.40;;;;;;;9.40;76.17;92985.16;5059239;28;20201;-84
2022/05/04 05:42:32;;;;;;;14.83;13.57;;;;;;;9.72;74.17;92983.03;5068956;28;20232;-90
2022/05/04 05:44:58;;;;;;;13.70;12.60;;;;;;;9.95;73.10;92984.25;5064517;28;20172;-86
2022/05/04 05:47:23;;;;;;;12.90;11.97;;;;;;;10.00;72.44;92961.56;5063762;28;20230;-89
2022/05/04 05:49:49;;;;;;;18.27;17.07;;;;;;;10.54;70.32;92949.38;5070469;28;20194;-79
2022/05/04 05:52:14;;;;;;;13.30;12.30;;;;;;;11.18;68.56;92972.72;5050063;28;20281;-82
2022/05/04 05:54:40;;;;;;;13.70;12.03;;;;;;;13.88;60.53;92980.97;5047360;28;20182;-84
2022/05/04 05:57:06;;;;;;;13.10;11.90;;;;;;;14.78;57.56;92988.97;5046046;28;20214;-82
2022/05/04 05:59:31;;;;;;;13.10;12.00;;;;;;;16.73;49.72;92980.84;5047599;28;20216;-79
2022/05/04 06:01:57;;;;;;;12.90;11.70;;;;;;;19.22;43.47;92977.41;5059624;28;20241;-78
2022/05/04 06:04:22;;;;;;;12.73;11.43;;;;;;;21.43;39.10;92995.53;5069296;28;20276;-79
2022/05/04 06:06:48;;;;;;;12.57;11.67;;;;;;;22.91;35.49;92995.72;5061715;28;20233;-80
2022/05/04 06:09:13;;;;;;;12.10;11.10;;;;;;;21.93;36.71;92980.66;5048973;28;20198;-81
2022/05/04 06:11:39;;;;;;;10.23;9.50;;;;;;;23.71;33.18;92998.69;5046851;28;20265;-81
2022/05/04 06:14:04;;;;;;;11.43;10.63;;;;;;;25.68;29.61;92997.59;5048564;28;20222;-79
2022/05/04 06:16:30;;;;;;;11.07;10.18;;;;;;;25.38;28.97;92999.47;5052091;28;20228;-81
2022/05/04 06:18:55;;;;;;;11.48;10.65;;;;;;;25.07;29.59;92989.78;5050485;28;20193;-84
2022/05/04 06:21:21;;;;;;;11.20;10.40;;;;;;;22.49;33.09;92973.38;5052274;28;20220;-83
2022/05/04 06:23:46;;;;;;;12.07;11.18;;;;;;;19.90;38.59;92982.97;5055865;28;20213;-81
2022/05/04 06:26:13;;;;;;;11.33;10.43;;;;;;;15.87;48.95;92984.94;5055829;28;20225;-85
2022/05/04 06:28:38;;;;;;;12.40;11.57;;;;;;;14.41;54.30;92990.75;5052611;28;20194;-85
2022/05/04 06:36:32;;;;;;;11.80;10.97;;;;;;;12.22;60.89;92995.59;5051488;28;20244;-86
2022/05/04 06:38:58;;;;;;;12.73;11.73;;;;;;;12.11;62.53;93004.63;5068314;28;20178;-85
2022/05/04 06:41:23;;;;;;;12.00;11.10;;;;;;;11.92;63.15;92999.28;5059200;28;20289;-81
2022/05/04 06:43:49;;;;;;;12.70;11.63;;;;;;;12.02;62.90;93001.81;5076387;28;20189;-86
2022/05/04 06:46:15;;;;;;;12.77;11.77;;;;;;;11.86;62.52;92986.56;5071968;28;20327;-84
2022/05/04 06:48:41;;;;;;;11.90;10.90;;;;;;;11.70;64.61;93003.44;5071723;28;20244;-85
2022/05/04 06:51:08;;;;;;;12.97;11.67;;;;;;;11.47;66.31;92997.06;5072454;28;20292;-86
2022/05/04 06:53:34;;;;;;;13.50;12.40;;;;;;;12.09;64.43;92997.06;5070522;28;20192;-87
2022/05/04 06:56:00;;;;;;;13.93;12.43;;;;;;;12.10;62.62;92989.97;5073549;28;20240;-90
2022/05/04 06:58:25;;;;;;;13.40;12.30;;;;;;;11.68;66.32;93001.09;5064117;28;20188;-88
2022/05/04 07:00:51;;;;;;;17.13;13.17;;;;;;;11.50;65.55;93003.59;5071482;28;20198;-86
2022/05/04 07:03:17;;;;;;;13.77;12.50;;;;;;;11.72;66.38;92988.25;5080067;28;20252;-88
2022/05/04 07:05:43;;;;;;;13.17;12.17;;;;;;;12.00;65.29;93000.56;5070043;28;20224;-81
2022/05/04 07:08:08;;;;;;;13.53;12.33;;;;;;;12.07;63.32;93011.47;5071269;28;20185;-87
2022/05/04 07:10:34;;;;;;;12.97;11.97;;;;;;;11.96;65.10;93004.75;5073635;28;20268;-87
2022/05/04 07:13:00;;;;;;;14.17;13.10;;;;;;;12.40;63.28;92995.66;5068346;28;20205;-84
2022/05/04 07:15:25;;;;;;;15.50;12.77;;;;;;;12.44;62.21;93007.13;5059092;28;20193;-81
2022/05/04 07:17:51;;;;;;;13.17;12.27;;;;;;;12.05;64.47;93003.88;5051437;28;20237;-83
2022/05/04 07:20:16;;;;;;;16.90;15.17;;;;;;;12.35;62.92;93002.78;5049347;28;20195;-81
2022/05/04 07:22:42;;;;;;;17.27;15.57;;;;;;;12.36;62.10;92993.84;5074108;28;20224;-82
2022/05/04 07:25:07;;;;;;;15.07;13.77;;;;;;;11.41;66.01;93010.47;5072709;28;20191;-84
2022/05/04 07:27:33;;;;;;;15.60;14.10;;;;;;;11.87;65.10;93003.81;5084993;28;20236;-83
2022/05/04 07:29:58;;;;;;;15.60;14.27;;;;;;;12.30;64.14;93003.63;5073517;28;20178;-81
2022/05/04 07:32:24;;;;;;;30.10;21.23;;;;;;;11.86;68.75;92995.16;5069531;28;20232;-84
2022/05/04 07:34:50;;;;;;;15.57;14.20;;;;;;;12.28;65.20;93000.50;5072366;28;20193;-82
2022/05/04 07:37:15;;;;;;;15.23;13.80;;;;;;;11.70;65.97;93000.81;5073999;28;20240;-82
2022/05/04 07:42:25;;;;;;;14.20;12.97;;;;;;;12.49;64.95;92999.22;5082965;28;20236;-83
2022/05/04 07:45:12;;;;;;;15.00;13.73;;;;;;;12.81;63.28;92998.53;5073100;28;20182;-80
2022/05/04 07:47:39;;;;;;;17.93;16.17;;;;;;;13.19;61.24;92989.66;5073841;28;20259;-82
2022/05/04 07:50:06;;;;;;;16.53;15.03;;;;;;;12.71;63.70;92996.84;5071506;28;20213;-80
2022/05/04 07:52:32;;;;;;;18.23;16.33;;;;;;;13.18;61.84;92995.19;5070029;28;20221;-80
2022/05/04 07:54:58;;;;;;;17.97;16.13;;;;;;;13.15;61.36;93003.63;5071941;28;20213;-81
2022/05/04 07:57:23;;;;;;;15.93;14.43;;;;;;;12.94;62.24;92997.84;5073722;28;20209;-82
2022/05/04 08:05:20;;;;;;;14.33;13.00;;;;;;;13.01;61.42;92998.31;5059124;28;20206;-85
2022/05/04 08:07:45;;;;;;;15.93;13.90;;;;;;;13.22;60.73;93004.81;5066678;28;20229;-82
2022/05/04 08:10:11;;;;;;;15.63;14.23;;;;;;;13.57;58.37;93014.78;5071269;28;20216;-83
2022/05/04 08:12:36;;;;;;;15.43;13.93;;;;;;;13.27;59.74;93010.00;5070121;28;20225;-82
2022/05/04 08:15:02;;;;;;;16.17;14.70;;;;;;;13.80;58.25;93006.03;5064083;28;20181;-81
2022/05/04 08:17:28;;;;;;;23.17;17.00;;;;;;;13.85;58.58;92990.16;5068204;28;20777;-86
2022/05/04 08:19:53;;;;;;;16.63;15.03;;;;;;;13.84;58.65;92991.25;5069270;28;20264;-85
2022/05/04 08:22:19;;;;;;;17.27;15.87;;;;;;;13.94;57.79;92990.28;5065926;28;20699;-82
2022/05/04 08:24:45;;;;;;;15.00;13.60;;;;;;;13.92;57.11;92998.47;5072972;28;20209;-83
2022/05/04 08:27:10;;;;;;;14.20;12.90;;;;;;;13.70;57.97;92974.69;5067411;28;20213;-86
2022/05/04 08:29:36;;;;;;;14.27;12.80;;;;;;;13.76;58.57;92989.28;5063919;28;20251;-84
2022/05/04 08:32:01;;;;;;;15.53;13.77;;;;;;;13.70;58.25;92994.88;5070428;28;20238;-83
2022/05/04 08:34:27;;;;;;;14.47;13.27;;;;;;;14.15;58.20;92996.72;5070718;28;20224;-87
2022/05/04 08:36:52;;;;;;;13.20;12.03;;;;;;;14.24;57.61;92998.44;5066845;28;20237;-82
2022/05/04 08:39:18;;;;;;;12.93;11.73;;;;;;;14.44;56.23;93002.53;5072234;28;20189;-88
2022/05/04 08:41:44;;;;;;;13.93;12.13;;;;;;;14.40;57.49;92989.19;5072492;28;20225;-90
2022/05/04 08:44:12;;;;;;;12.17;11.27;;;;;;;14.84;55.14;93006.19;5067794;28;20178;-86
2022/05/04 08:46:42;;;;;;;11.80;10.90;;;;;;;14.76;53.02;92997.16;5073937;28;20256;-88
2022/05/04 08:49:09;;;;;;;12.10;11.20;;;;;;;14.74;53.68;93003.78;5066435;28;20762;-88
2022/05/04 08:51:36;;;;;;;12.27;11.37;;;;;;;14.87;56.56;92998.50;5069977;28;20332;-88
2022/05/04 08:54:03;;;;;;;13.03;12.03;;;;;;;15.03;50.88;93001.59;5070413;28;20197;-88
2022/05/04 08:56:30;;;;;;;10.60;9.90;;;;;;;14.71;52.12;93004.38;5069371;28;20713;-88
2022/05/04 08:58:55;;;;;;;9.93;9.33;;;;;;;15.04;51.53;93003.13;5067916;28;20193;-87
2022/05/04 09:01:24;;;;;;;11.80;11.00;;;;;;;14.85;53.98;93000.66;5066017;28;20248;-92
2022/05/04 09:03:49;;;;;;;10.13;9.30;;;;;;;15.07;52.34;92998.06;5064389;28;20185;-94
2022/05/04 09:06:26;;;;;;;9.37;8.87;;;;;;;15.20;51.98;93007.00;5073736;28;20216;-93
2022/05/04 09:09:06;;;;;;;10.87;10.20;;;;;;;15.37;51.38;92986.09;5075985;28;20193;-93
2022/05/04 09:11:32;;;;;;;9.33;8.63;;;;;;;15.33;50.36;92975.38;5068983;28;20228;-93
2022/05/04 09:13:58;;;;;;;9.03;8.53;;;;;;;15.47;49.16;92985.91;5067433;28;20204;-84
2022/05/04 09:16:29;;;;;;;10.10;9.53;;;;;;;15.53;49.61;92964.41;5062491;28;20233;-88
2022/05/04 09:18:55;;;;;;;8.73;8.17;;;;;;;15.59;50.40;92988.78;5050563;28;20189;-90
2022/05/04 09:21:23;;;;;;;8.97;8.13;;;;;;;15.70;50.42;92984.84;5049284;28;20224;-93
2022/05/04 09:23:52;;;;;;;9.03;8.43;;;;;;;15.90;49.02;93000.13;5050181;28;20257;-89
2022/05/04 09:26:19;;;;;;;9.10;8.70;;;;;;;16.00;45.88;92990.13;5048103;28;20233;-88
2022/05/04 09:28:48;;;;;;;8.20;7.77;;;;;;;16.16;45.60;92993.16;5060404;28;20178;-87
2022/05/04 09:31:14;;;;;;;8.60;8.20;;;;;;;16.20;47.96;92980.94;5045949;28;20224;-91
2022/05/04 09:33:40;;;;;;;8.70;8.30;;;;;;;16.24;44.01;92979.25;5069701;28;20205;-94
2022/05/04 09:36:06;;;;;;;9.57;9.07;;;;;;;15.94;46.43;92996.59;5069070;28;20217;-86
2022/05/04 09:47:20;;;;;;;8.53;8.13;;;;;;;16.20;46.06;92983.56;5019969;28;20237;-89
2022/05/04 09:49:48;;;;;;;8.57;8.07;;;;;;;16.26;47.01;92982.34;5049716;28;20201;-87
2022/05/04 09:52:15;;;;;;;8.30;7.90;;;;;;;16.29;46.06;92952.75;5070701;28;20213;-92
2022/05/04 09:54:41;;;;;;;9.07;8.67;;;;;;;16.33;45.87;92972.13;5081451;28;20188;-89
2022/05/04 09:57:07;;;;;;;8.90;8.37;;;;;;;16.54;46.22;92973.19;5071062;28;20222;-89
2022/05/04 09:59:36;;;;;;;8.10;7.70;;;;;;;16.68;46.47;92973.84;5066882;28;20194;-87
2022/05/04 10:02:09;;;;;;;8.63;8.23;;;;;;;16.71;44.98;92973.25;5077020;28;20235;-91
2022/05/04 10:04:36;;;;;;;9.10;8.60;;;;;;;16.89;45.00;92972.19;5069077;28;20192;-95
2022/05/04 10:07:03;;;;;;;11.17;10.47;;;;;;;16.62;46.87;92969.81;5062527;28;20282;-90
2022/05/04 10:09:29;;;;;;;8.47;8.07;;;;;;;16.50;47.24;92966.19;5056304;28;20186;-92
2022/05/04 10:11:57;;;;;;;8.73;8.33;;;;;;;16.86;44.77;92964.88;5081736;28;20221;-90
2022/05/04 10:14:27;;;;;;;8.97;8.47;;;;;;;16.66;45.07;92954.91;5072964;28;20273;-86
2022/05/04 10:17:23;;;;;;;8.50;8.10;;;;;;;16.52;46.60;92964.81;5075371;28;20213;-90
2022/05/04 10:20:09;;;;;;;8.63;8.23;;;;;;;16.51;45.71;92970.38;5069352;28;20212;-89
2022/05/04 10:22:57;;;;;;;9.20;8.80;;;;;;;16.33;44.41;92964.22;5068046;28;20236;-86
2022/05/04 10:25:25;;;;;;;8.90;8.50;;;;;;;16.98;44.98;92956.38;5070188;28;20200;-90
2022/05/04 10:27:50;;;;;;;7.90;7.50;;;;;;;16.55;46.09;92924.66;5071721;28;20221;-86
2022/05/04 10:30:32;;;;;;;7.70;7.40;;;;;;;16.86;44.86;92953.53;5067540;28;20268;-85
2022/05/04 10:32:59;;;;;;;8.93;8.43;;;;;;;16.96;44.39;92948.78;5069116;28;20233;-88
2022/05/04 10:35:32;;;;;;;8.70;8.30;;;;;;;17.07;43.83;92950.03;5085237;28;20223;-89
2022/05/04 10:37:57;;;;;;;9.00;8.30;;;;;;;16.93;43.21;92945.97;5072615;28;20205;-86
2022/05/04 10:40:30;;;;;;;8.53;8.13;;;;;;;16.99;44.10;92905.94;5077970;28;20194;-87
2022/05/04 10:42:57;;;;;;;9.43;8.93;;;;;;;17.51;44.77;92944.44;5072567;28;20305;-84
2022/05/04 10:45:44;;;;;;;8.57;8.03;;;;;;;17.58;41.85;92939.50;5072836;28;20196;-92
2022/05/04 10:48:19;;;;;;;9.03;8.63;;;;;;;17.27;41.40;92938.06;5047564;28;20206;-89
2022/05/04 10:51:09;;;;;;;9.57;9.07;;;;;;;16.92;42.52;92920.66;5042740;28;20277;-92
2022/05/04 10:53:43;;;;;;;8.53;8.13;;;;;;;17.25;41.92;92938.38;5071568;28;20221;-86
2022/05/04 10:56:12;;;;;;;9.57;9.07;;;;;;;17.27;41.63;92936.22;5088648;28;20308;-85
2022/05/04 10:58:45;;;;;;;7.97;7.57;;;;;;;17.24;41.01;92925.50;5074397;28;20182;-94
2022/05/04 11:01:25;;;;;;;9.03;8.63;;;;;;;17.24;42.28;92876.16;5066363;28;20237;-89
2022/05/04 11:04:09;;;;;;;8.10;7.63;;;;;;;17.66;40.51;92926.56;5064507;28;20177;-90
2022/05/04 11:06:35;;;;;;;7.83;7.53;;;;;;;17.59;40.71;92904.06;5069155;28;20236;-91
2022/05/04 11:09:07;;;;;;;8.97;8.57;;;;;;;17.48;42.36;92928.44;5066458;28;20937;-91
2022/05/04 11:11:33;;;;;;;8.17;7.77;;;;;;;17.17;41.49;92890.88;5058984;28;20218;-89
2022/05/04 11:13:59;;;;;;;8.10;7.70;;;;;;;17.32;40.28;92914.94;5069831;28;20177;-88
2022/05/04 11:16:26;;;;;;;8.80;8.40;;;;;;;17.03;41.66;92919.28;5071737;28;20248;-90
2022/05/04 11:18:52;;;;;;;9.23;8.53;;;;;;;16.93;42.72;92923.03;5067897;28;20205;-83
2022/05/04 11:21:18;;;;;;;8.93;8.53;;;;;;;16.68;42.61;92913.22;5067408;28;20218;-90
2022/05/04 11:23:51;;;;;;;8.20;7.80;;;;;;;16.78;42.70;92914.78;5071815;28;20177;-89
2022/05/04 11:26:25;;;;;;;9.03;8.53;;;;;;;16.91;45.09;92913.84;5069200;28;20230;-84
2022/05/04 11:28:52;;;;;;;8.57;8.17;;;;;;;16.70;41.84;92916.28;5071018;28;20174;-81
2022/05/04 11:31:20;;;;;;;9.50;9.00;;;;;;;16.96;40.29;92906.56;5067491;28;20232;-84
2022/05/04 11:33:48;;;;;;;8.70;8.30;;;;;;;16.81;42.97;92909.66;5068888;28;20229;-85
2022/05/04 11:36:17;;;;;;;8.17;7.87;;;;;;;17.47;41.42;92889.94;5070335;28;20280;-84
2022/05/04 11:38:46;;;;;;;8.27;7.77;;;;;;;17.68;40.89;92911.97;5071904;28;20196;-86
2022/05/04 11:41:13;;;;;;;9.10;8.60;;;;;;;18.19;40.65;92903.09;5070432;28;20225;-85
2022/05/04 11:43:39;;;;;;;8.30;7.87;;;;;;;18.43;39.13;92909.41;5067735;28;20241;-85
2022/05/04 11:46:07;;;;;;;9.17;8.77;;;;;;;18.47;39.91;92910.31;5072770;28;20218;-79
2022/05/04 11:48:38;;;;;;;8.47;7.83;;;;;;;18.00;39.58;92908.00;5053834;28;20186;-82
2022/05/04 11:51:05;;;;;;;9.10;8.50;;;;;;;18.24;37.89;92903.69;5051683;28;20269;-79
2022/05/04 11:53:30;;;;;;;9.10;8.63;;;;;;;18.07;39.58;92887.91;5047310;28;20261;-79
2022/05/04 11:55:58;;;;;;;9.63;9.23;;;;;;;18.75;37.82;92902.69;5049040;28;20233;-82
2022/05/04 11:58:26;;;;;;;9.10;8.70;;;;;;;18.67;38.24;92906.94;5070080;28;20186;-83
2022/05/04 12:00:51;;;;;;;7.53;7.23;;;;;;;18.55;39.34;92904.19;5073265;28;20204;-84